Time;durP1;ratioP1;P1;durP2;ratioP2;P2;SDS_P1;SDS_P2;PMS_P1;PMS_P2;Temp;Humidity;BMP_temperature;BMP_pressure;BME280_temperature;BME280_humidity;BME280_pressure;Samples;Min_cycle;Max_cycle;Signal;HPM_P1;HPM_P2
2022/06/05 00:01:22;;;;;;;7.40;4.03;;;18.00;99.90;;;;;;5090984;28;20032;-56
2022/06/05 00:04:06;;;;;;;12.15;4.55;;;18.00;99.90;;;;;;5090711;28;20024;-54
2022/06/05 00:06:34;;;;;;;;;;;17.90;99.90;;;;;;5091297;28;20028;-53
2022/06/05 00:09:18;;;;;;;4.22;3.53;;;17.90;99.90;;;;;;5090712;28;19914;-55
2022/06/05 00:12:08;;;;;;;7.25;3.88;;;17.80;99.90;;;;;;5093107;28;20040;-56
2022/06/05 00:14:38;;;;;;;8.50;5.05;;;17.70;99.90;;;;;;5090559;28;20036;-54
2022/06/05 00:17:20;;;;;;;8.15;4.22;;;17.60;99.90;;;;;;5093226;28;20054;-51
2022/06/05 00:19:50;;;;;;;8.25;4.70;;;17.60;99.90;;;;;;5094404;28;20013;-55
2022/06/05 00:22:16;;;;;;;5.97;3.67;;;17.50;99.90;;;;;;5094133;28;20070;-54
2022/06/05 00:24:45;;;;;;;11.15;4.18;;;17.50;99.90;;;;;;5094468;28;20626;-54
2022/06/05 00:27:23;;;;;;;11.82;4.43;;;17.40;99.90;;;;;;5094297;28;20024;-53
2022/06/05 00:30:09;;;;;;;13.80;5.07;;;17.40;99.90;;;;;;5094419;28;20032;-55
2022/06/05 00:32:48;;;;;;;11.82;4.60;;;17.40;99.90;;;;;;5079241;28;20055;-56
2022/06/05 00:35:17;;;;;;;8.50;4.32;;;17.40;99.90;;;;;;5094168;28;20081;-56
2022/06/05 00:40:49;;;;;;;17.40;4.63;;;17.40;99.90;;;;;;5094060;28;20616;-53
2022/06/05 00:43:17;;;;;;;13.90;5.10;;;17.30;99.90;;;;;;5093594;28;20052;-56
2022/06/05 00:45:44;;;;;;;16.10;4.60;;;17.30;99.90;;;;;;5092901;28;20460;-56
2022/06/05 00:48:11;;;;;;;10.18;4.63;;;17.20;99.90;;;;;;5093717;28;20853;-57
2022/06/05 00:50:37;;;;;;;13.68;5.25;;;17.20;99.90;;;;;;5093769;28;20032;-53
2022/06/05 00:53:07;;;;;;;9.40;4.88;;;17.20;99.90;;;;;;5093731;28;20522;-56
2022/06/05 00:55:45;;;;;;;7.25;4.63;;;17.20;99.90;;;;;;5093460;28;20034;-54
2022/06/05 00:58:11;;;;;;;11.88;4.57;;;17.20;99.90;;;;;;5093894;28;20478;-54
2022/06/05 01:00:42;;;;;;;11.50;5.15;;;17.20;99.90;;;;;;5093434;28;20032;-56
2022/06/05 01:03:10;;;;;;;10.18;4.97;;;17.20;99.90;;;;;;5093596;28;20085;-54
2022/06/05 01:05:36;;;;;;;13.10;5.53;;;17.20;99.90;;;;;;5093240;28;20505;-56
2022/06/05 01:08:02;;;;;;;13.13;5.07;;;17.20;99.90;;;;;;5093568;28;20028;-53
2022/06/05 01:10:43;;;;;;;10.77;5.75;;;17.20;99.90;;;;;;5093361;28;20069;-55
2022/06/05 01:13:14;;;;;;;8.75;5.03;;;17.20;99.90;;;;;;5092991;28;20424;-51
2022/06/05 01:16:16;;;;;;;13.38;5.53;;;17.30;99.90;;;;;;5093002;28;20505;-55
2022/06/05 01:18:47;;;;;;;8.65;5.97;;;17.30;99.90;;;;;;5091621;28;20043;-54
2022/06/05 01:21:51;;;;;;;7.50;5.28;;;17.30;99.90;;;;;;5092880;28;20028;-54
2022/06/05 01:24:46;;;;;;;10.10;5.72;;;17.30;99.90;;;;;;5092742;28;20016;-55
2022/06/05 01:27:17;;;;;;;7.97;5.95;;;17.40;99.90;;;;;;5093128;28;20032;-56
2022/06/05 01:29:49;;;;;;;9.85;5.82;;;17.40;99.90;;;;;;5093025;28;20471;-53
2022/06/05 01:32:23;;;;;;;8.90;5.75;;;17.40;99.90;;;;;;5093119;28;20026;-56
2022/06/05 01:34:58;;;;;;;17.17;6.15;;;17.50;99.90;;;;;;5093051;28;20032;-56
2022/06/05 01:37:50;;;;;;;6.80;5.88;;;17.50;99.90;;;;;;5093115;28;20078;-53
2022/06/05 01:40:25;;;;;;;8.05;6.05;;;17.40;99.90;;;;;;5091453;28;20032;-54
2022/06/05 01:43:02;;;;;;;15.50;6.35;;;17.40;99.90;;;;;;5092101;28;20543;-54
2022/06/05 01:45:38;;;;;;;11.80;6.68;;;17.40;99.90;;;;;;5092515;28;20020;-51
2022/06/05 01:48:06;;;;;;;10.20;6.35;;;17.40;99.90;;;;;;5090114;28;20110;-54
2022/06/05 01:50:59;;;;;;;7.95;5.90;;;17.30;99.90;;;;;;5092376;28;20024;-54
2022/06/05 01:53:33;;;;;;;12.18;6.55;;;17.30;99.90;;;;;;5092682;28;20032;-54
2022/06/05 01:56:09;;;;;;;12.15;6.53;;;17.20;99.90;;;;;;5092585;28;20623;-54
2022/06/05 01:58:40;;;;;;;11.18;7.07;;;17.20;99.90;;;;;;5092504;28;20111;-53
2022/06/05 02:01:33;;;;;;;10.38;7.35;;;17.20;99.90;;;;;;5091854;28;20078;-55
2022/06/05 02:04:21;;;;;;;10.73;7.82;;;17.20;99.90;;;;;;5092364;28;20093;-55
2022/06/05 02:06:56;;;;;;;10.65;8.05;;;17.10;99.90;;;;;;5092503;28;20011;-54
2022/06/05 02:09:32;;;;;;;10.50;7.93;;;17.10;99.90;;;;;;5092059;28;20114;-53
2022/06/05 02:11:59;;;;;;;9.95;8.50;;;17.10;99.90;;;;;;5092344;28;20020;-53
2022/06/05 02:14:25;;;;;;;15.07;8.55;;;17.10;99.90;;;;;;5092150;28;20028;-54
2022/06/05 02:16:51;;;;;;;17.17;10.25;;;17.00;99.90;;;;;;5092162;28;20036;-54
2022/06/05 02:19:19;;;;;;;9.05;8.15;;;17.00;99.90;;;;;;5092023;28;20115;-55
2022/06/05 02:21:45;;;;;;;12.07;9.88;;;17.00;99.90;;;;;;5090516;28;20428;-54
2022/06/05 02:24:12;;;;;;;13.55;11.38;;;16.90;99.90;;;;;;5091849;28;20736;-51
2022/06/05 02:26:39;;;;;;;13.80;11.43;;;16.90;99.90;;;;;;5092162;28;20341;-51
2022/06/05 02:29:17;;;;;;;15.57;10.32;;;16.90;99.90;;;;;;5091770;28;20012;-55
2022/06/05 02:31:55;;;;;;;14.90;11.68;;;16.90;99.90;;;;;;5091961;28;20497;-54
2022/06/05 02:34:38;;;;;;;17.88;11.40;;;16.80;99.90;;;;;;5085086;28;20475;-56
2022/06/05 02:37:42;;;;;;;16.08;10.70;;;16.80;99.90;;;;;;5080270;28;20471;-55
2022/06/05 02:40:27;;;;;;;;;;;16.80;99.90;;;;;;5091425;28;20047;-56
2022/06/05 02:43:12;;;;;;;13.60;10.32;;;16.80;99.90;;;;;;5090081;28;19959;-53
2022/06/05 02:45:59;;;;;;;19.50;10.23;;;16.80;99.90;;;;;;5091709;28;20028;-56
2022/06/05 02:48:35;;;;;;;11.55;9.88;;;16.80;99.90;;;;;;5071752;28;20021;-56
2022/06/05 02:51:26;;;;;;;10.63;9.52;;;16.80;99.90;;;;;;5082188;28;20028;-55
2022/06/05 02:53:57;;;;;;;12.30;10.65;;;16.80;99.90;;;;;;5091772;28;20020;-56
2022/06/05 02:56:25;;;;;;;12.90;9.98;;;16.70;99.90;;;;;;5091854;28;20022;-53
2022/06/05 02:58:52;;;;;;;11.43;10.10;;;16.80;99.90;;;;;;5091688;28;20039;-56
2022/06/05 03:04:02;;;;;;;12.20;9.82;;;16.70;99.90;;;;;;5091490;28;20456;-53
2022/06/05 03:06:29;;;;;;;10.52;9.43;;;16.80;99.90;;;;;;5091605;28;20057;-53
2022/06/05 03:08:55;;;;;;;15.95;10.43;;;16.70;99.90;;;;;;5091344;28;20032;-54
2022/06/05 03:11:21;;;;;;;12.30;9.57;;;16.70;99.90;;;;;;5091557;28;20038;-51
2022/06/05 03:13:47;;;;;;;11.95;10.15;;;16.70;99.90;;;;;;5091285;28;20024;-52
2022/06/05 03:16:13;;;;;;;15.82;10.02;;;16.70;99.90;;;;;;5089835;28;20093;-53
2022/06/05 03:18:39;;;;;;;11.55;9.98;;;16.70;99.90;;;;;;5091462;28;20054;-55
2022/06/05 03:21:05;;;;;;;11.77;10.20;;;16.70;99.90;;;;;;5090964;28;20028;-54
2022/06/05 03:23:32;;;;;;;14.30;10.85;;;16.70;99.90;;;;;;5091379;28;20111;-53
2022/06/05 03:25:58;;;;;;;18.92;10.27;;;16.70;99.90;;;;;;5091043;28;20020;-52
2022/06/05 03:28:24;;;;;;;10.68;9.38;;;16.70;99.90;;;;;;5091400;28;20095;-54
2022/06/05 03:30:50;;;;;;;11.43;9.05;;;16.80;99.90;;;;;;5090926;28;20138;-56
2022/06/05 03:33:15;;;;;;;12.65;9.10;;;16.80;99.90;;;;;;5088389;28;20016;-55
2022/06/05 03:35:43;;;;;;;9.75;8.75;;;16.80;99.90;;;;;;5090396;28;20096;-55
2022/06/05 03:38:10;;;;;;;14.57;11.05;;;16.80;99.90;;;;;;5091161;28;20658;-55
2022/06/05 03:40:40;;;;;;;13.20;9.82;;;16.80;99.90;;;;;;5091084;28;20103;-54
2022/06/05 03:43:06;;;;;;;16.73;10.10;;;16.80;99.90;;;;;;5089614;28;20040;-54
2022/06/05 03:45:32;;;;;;;16.02;9.52;;;16.80;99.90;;;;;;5091297;28;20032;-56
2022/06/05 03:47:57;;;;;;;13.30;9.10;;;16.90;99.90;;;;;;5094772;28;20474;-52
2022/06/05 03:50:23;;;;;;;11.98;10.70;;;16.80;99.90;;;;;;5093271;28;20046;-56
2022/06/05 03:52:49;;;;;;;12.90;8.57;;;16.80;99.90;;;;;;5095311;28;20036;-56
2022/06/05 03:55:19;;;;;;;14.25;9.98;;;16.80;99.90;;;;;;5094962;28;20073;-53
2022/06/05 03:57:45;;;;;;;9.63;8.73;;;16.90;99.90;;;;;;5094563;28;20103;-53
2022/06/05 04:00:13;;;;;;;10.32;9.32;;;16.90;99.90;;;;;;5094448;28;20119;-54
2022/06/05 04:02:39;;;;;;;14.05;9.48;;;16.90;99.90;;;;;;5094859;28;20111;-53
2022/06/05 04:05:06;;;;;;;11.23;10.07;;;16.90;99.90;;;;;;5093828;28;20122;-55
2022/06/05 04:07:32;;;;;;;10.68;8.88;;;17.00;99.90;;;;;;5092972;28;20174;-51
2022/06/05 04:09:58;;;;;;;13.10;8.98;;;17.00;99.90;;;;;;5093285;28;20437;-52
2022/06/05 04:12:24;;;;;;;12.82;9.50;;;17.00;99.90;;;;;;5093233;28;20031;-52
2022/06/05 04:14:49;;;;;;;10.95;9.38;;;17.00;99.90;;;;;;5093240;28;20107;-54
2022/06/05 04:17:15;;;;;;;16.38;9.48;;;17.10;99.90;;;;;;5093733;28;20348;-51
2022/06/05 04:19:41;;;;;;;11.77;9.77;;;17.10;99.90;;;;;;5093156;28;20024;-50
2022/06/05 04:22:07;;;;;;;9.60;8.73;;;17.20;99.90;;;;;;5092998;28;20032;-52
2022/06/05 04:24:32;;;;;;;12.15;9.80;;;17.10;99.90;;;;;;5092853;28;20077;-60
2022/06/05 04:26:58;;;;;;;11.20;10.15;;;17.20;99.90;;;;;;5092857;28;20593;-55
2022/06/05 04:29:24;;;;;;;14.93;10.38;;;17.20;99.90;;;;;;5093985;28;20379;-55
2022/06/05 04:31:51;;;;;;;11.93;10.43;;;17.30;99.90;;;;;;5093569;28;20028;-57
2022/06/05 04:34:20;;;;;;;11.32;10.20;;;17.30;99.90;;;;;;5094117;28;20028;-56
2022/06/05 04:36:47;;;;;;;15.55;10.65;;;17.30;99.90;;;;;;5094304;28;20032;-55
2022/06/05 04:39:13;;;;;;;12.50;11.10;;;17.40;99.90;;;;;;5093803;28;20047;-51
2022/06/05 04:41:40;;;;;;;15.05;10.70;;;17.40;99.90;;;;;;5094139;28;20034;-55
2022/06/05 04:44:08;;;;;;;12.57;10.60;;;17.30;99.90;;;;;;5093768;28;20032;-53
2022/06/05 04:46:35;;;;;;;12.15;10.95;;;17.40;99.90;;;;;;5094108;28;20073;-52
2022/06/05 04:49:01;;;;;;;13.15;10.85;;;17.50;99.90;;;;;;5093894;28;20024;-54
2022/06/05 04:51:27;;;;;;;16.13;11.52;;;17.50;99.90;;;;;;5093824;28;20510;-53
2022/06/05 04:53:55;;;;;;;11.93;10.77;;;17.50;99.90;;;;;;5093660;28;20028;-55
2022/06/05 04:56:24;;;;;;;18.75;11.13;;;17.50;99.90;;;;;;5093557;28;20074;-53
2022/06/05 04:58:50;;;;;;;16.80;11.77;;;17.60;99.90;;;;;;5092455;28;20398;-55
2022/06/05 05:01:35;;;;;;;14.07;12.13;;;17.70;99.90;;;;;;5073580;28;20024;-52
2022/06/05 05:04:08;;;;;;;13.15;11.77;;;17.70;99.90;;;;;;5076052;28;20032;-53
2022/06/05 05:06:35;;;;;;;19.73;12.50;;;17.80;99.90;;;;;;5093550;28;20370;-57
2022/06/05 05:09:07;;;;;;;12.80;11.18;;;17.90;99.90;;;;;;5093472;28;20487;-55
2022/06/05 05:11:33;;;;;;;16.55;12.75;;;17.90;99.90;;;;;;5093685;28;20077;-52
2022/06/05 05:14:00;;;;;;;15.98;12.70;;;17.90;99.90;;;;;;5093340;28;20028;-55
2022/06/05 05:16:27;;;;;;;15.93;12.40;;;18.00;99.90;;;;;;5093714;28;20030;-51
2022/06/05 05:22:15;;;;;;;13.77;11.02;;;18.10;99.90;;;;;;5093293;28;20034;-55
2022/06/05 05:24:40;;;;;;;12.73;11.35;;;18.20;99.90;;;;;;5092029;28;20495;-53
2022/06/05 05:27:06;;;;;;;13.82;12.20;;;18.30;99.90;;;;;;5092347;28;20024;-55
2022/06/05 05:29:32;;;;;;;15.25;11.02;;;18.40;99.90;;;;;;5092926;28;20429;-57
2022/06/05 05:31:57;;;;;;;14.68;10.95;;;18.40;99.90;;;;;;5092825;28;20063;-62
2022/06/05 05:34:23;;;;;;;13.98;11.70;;;18.60;99.90;;;;;;5092981;28;20460;-52
2022/06/05 05:36:49;;;;;;;15.55;11.75;;;18.60;99.90;;;;;;5093249;28;20028;-54
2022/06/05 05:42:05;;;;;;;27.73;12.60;;;18.70;99.90;;;;;;5083394;28;20062;-54
2022/06/05 05:44:32;;;;;;;16.23;11.80;;;18.90;99.90;;;;;;5092683;28;20023;-50
2022/06/05 05:46:58;;;;;;;14.27;11.75;;;18.80;99.90;;;;;;5092784;28;20020;-56
2022/06/05 05:49:24;;;;;;;14.88;11.48;;;18.70;99.90;;;;;;5092713;28;20061;-51
2022/06/05 05:51:49;;;;;;;14.45;11.25;;;18.90;99.90;;;;;;5092743;28;20030;-55
2022/06/05 05:54:15;;;;;;;13.57;11.13;;;19.00;99.90;;;;;;5092411;28;20031;-54
2022/06/05 05:56:41;;;;;;;13.75;12.35;;;19.10;99.90;;;;;;5092530;28;20032;-54
2022/06/05 05:59:07;;;;;;;19.52;11.75;;;19.30;99.90;;;;;;5092547;28;20387;-52
2022/06/05 06:01:33;;;;;;;16.52;12.07;;;19.40;99.90;;;;;;5092367;28;20537;-54
2022/06/05 06:03:59;;;;;;;12.55;11.20;;;19.30;99.90;;;;;;5091540;28;20036;-56
2022/06/05 06:06:31;;;;;;;17.85;12.70;;;19.50;99.90;;;;;;5091727;28;20031;-58
2022/06/05 06:08:58;;;;;;;16.67;11.93;;;19.60;99.90;;;;;;5091913;28;20024;-54
2022/06/05 06:11:24;;;;;;;18.40;12.48;;;19.70;99.90;;;;;;5092564;28;20455;-57
2022/06/05 06:13:50;;;;;;;14.25;12.25;;;19.60;99.90;;;;;;5091802;28;20028;-57
2022/06/05 06:16:15;;;;;;;17.60;13.18;;;19.60;99.90;;;;;;5091144;28;20650;-55
2022/06/05 06:18:41;;;;;;;16.58;12.93;;;19.40;99.90;;;;;;5090765;28;20020;-57
2022/06/05 06:24:28;;;;;;;14.25;12.95;;;19.60;99.90;;;;;;5077635;28;20058;-58
2022/06/05 06:26:54;;;;;;;17.13;13.85;;;19.50;99.90;;;;;;5091364;28;20059;-56
2022/06/05 06:29:20;;;;;;;14.52;12.93;;;19.60;99.90;;;;;;5091683;28;20098;-57
2022/06/05 06:31:45;;;;;;;14.63;12.13;;;19.60;99.90;;;;;;5091442;28;20040;-55
2022/06/05 06:34:11;;;;;;;15.13;13.40;;;19.70;99.90;;;;;;5091249;28;20107;-52
2022/06/05 06:36:37;;;;;;;18.20;12.10;;;19.80;99.90;;;;;;5090388;28;20067;-54
2022/06/05 06:39:03;;;;;;;18.17;12.35;;;19.80;99.90;;;;;;5090147;28;20051;-54
2022/06/05 06:41:29;;;;;;;13.88;11.73;;;19.90;99.90;;;;;;5090545;28;20039;-55
2022/06/05 06:43:55;;;;;;;13.05;11.82;;;20.00;99.90;;;;;;5090264;28;20030;-56
2022/06/05 06:46:21;;;;;;;12.60;11.40;;;19.90;99.90;;;;;;5088965;28;20024;-56
2022/06/05 06:48:47;;;;;;;15.73;12.02;;;19.90;99.90;;;;;;5090165;28;20086;-54
2022/06/05 06:51:15;;;;;;;14.10;12.25;;;19.70;99.90;;;;;;5088658;28;20451;-54
2022/06/05 06:53:42;;;;;;;14.85;12.93;;;19.90;99.90;;;;;;5091733;28;20028;-56
2022/06/05 06:56:19;;;;;;;16.02;13.35;;;19.90;99.90;;;;;;5090863;28;20091;-54
2022/06/05 06:58:45;;;;;;;18.25;12.57;;;20.20;99.90;;;;;;5090827;28;20032;-57
2022/06/05 07:01:12;;;;;;;14.50;12.27;;;20.40;99.90;;;;;;5089659;28;20046;-57
2022/06/05 07:03:38;;;;;;;14.82;12.57;;;20.50;99.90;;;;;;5089774;28;20016;-55
2022/06/05 07:06:07;;;;;;;14.68;13.23;;;20.60;99.90;;;;;;5089707;28;20103;-56
2022/06/05 07:08:33;;;;;;;13.60;12.23;;;20.40;99.90;;;;;;5090592;28;20427;-55
2022/06/05 07:10:59;;;;;;;15.60;13.88;;;20.40;99.90;;;;;;5090604;28;20036;-53
2022/06/05 07:13:24;;;;;;;17.27;12.57;;;20.60;99.90;;;;;;5090229;28;20024;-52
2022/06/05 07:15:50;;;;;;;14.55;13.05;;;20.70;99.90;;;;;;5089678;28;20036;-56
2022/06/05 07:18:17;;;;;;;14.68;12.88;;;20.90;99.90;;;;;;5088571;28;20024;-55
2022/06/05 07:20:44;;;;;;;15.25;12.13;;;20.70;99.90;;;;;;5090938;28;20020;-56
2022/06/05 07:23:11;;;;;;;13.73;11.68;;;21.10;99.90;;;;;;5094113;28;20024;-52
2022/06/05 07:25:38;;;;;;;15.85;12.25;;;21.20;99.90;;;;;;5095275;28;20024;-54
2022/06/05 07:28:05;;;;;;;14.50;11.55;;;20.80;99.90;;;;;;5095117;28;20028;-57
2022/06/05 07:30:31;;;;;;;12.02;10.75;;;20.80;99.90;;;;;;5094204;28;20463;-56
2022/06/05 07:32:57;;;;;;;12.57;11.35;;;20.90;99.90;;;;;;5092548;28;20400;-54
2022/06/05 07:35:23;;;;;;;13.20;11.85;;;20.90;99.90;;;;;;5077915;28;20017;-57
2022/06/05 07:37:49;;;;;;;17.15;12.40;;;20.80;99.90;;;;;;5074139;28;20098;-57
2022/06/05 07:40:15;;;;;;;15.20;11.57;;;20.80;99.90;;;;;;5072738;28;20080;-55
2022/06/05 07:42:42;;;;;;;15.43;11.88;;;21.10;99.90;;;;;;5073781;28;20028;-51
2022/06/05 07:45:11;;;;;;;13.15;11.48;;;21.40;99.90;;;;;;5074994;28;20115;-56
2022/06/05 07:47:37;;;;;;;13.40;11.23;;;21.60;99.90;;;;;;5075006;28;20112;-55
2022/06/05 07:50:04;;;;;;;12.70;10.93;;;21.80;99.90;;;;;;5074838;28;20449;-55
2022/06/05 07:55:14;;;;;;;18.42;11.93;;;21.80;99.90;;;;;;5074268;28;20036;-57
2022/06/05 07:57:40;;;;;;;13.65;12.23;;;21.90;99.90;;;;;;5073340;28;20033;-56
2022/06/05 08:00:08;;;;;;;19.17;11.55;;;21.90;99.90;;;;;;5074512;28;20032;-55
2022/06/05 08:02:35;;;;;;;11.93;10.40;;;21.90;99.90;;;;;;5074638;28;20028;-57
2022/06/05 08:05:02;;;;;;;12.35;11.13;;;21.90;99.90;;;;;;5074479;28;20070;-54
2022/06/05 08:07:29;;;;;;;11.38;10.25;;;22.00;99.90;;;;;;5073592;28;20035;-56
2022/06/05 08:09:56;;;;;;;14.48;11.77;;;22.10;99.90;;;;;;5074409;28;20017;-56
2022/06/05 08:12:23;;;;;;;12.95;10.93;;;22.20;99.90;;;;;;5074638;28;20051;-57
2022/06/05 08:14:50;;;;;;;12.95;10.82;;;22.40;99.90;;;;;;5082264;28;20093;-56
2022/06/05 08:17:23;;;;;;;15.70;10.45;;;22.80;99.90;;;;;;5083566;28;20047;-57
2022/06/05 08:19:49;;;;;;;13.45;9.52;;;23.00;99.90;;;;;;5078821;28;20042;-54
2022/06/05 08:22:17;;;;;;;10.68;9.68;;;23.10;99.90;;;;;;5075565;28;20086;-54
2022/06/05 08:24:43;;;;;;;14.85;10.02;;;23.40;99.90;;;;;;5084154;28;20115;-56
2022/06/05 08:27:16;;;;;;;11.98;9.32;;;23.50;99.90;;;;;;5083727;28;20036;-55
2022/06/05 08:29:42;;;;;;;15.45;10.38;;;23.60;99.90;;;;;;5082992;28;20048;-58
2022/06/05 08:32:08;;;;;;;11.15;9.77;;;23.60;99.90;;;;;;5094047;28;20089;-53
2022/06/05 08:34:34;;;;;;;10.23;9.13;;;23.50;99.90;;;;;;5094352;28;20089;-56
2022/06/05 08:42:44;;;;;;;19.55;10.73;;;23.10;99.90;;;;;;5073981;28;20391;-57
2022/06/05 08:45:27;;;;;;;16.85;11.15;;;23.50;99.90;;;;;;5073431;28;20529;-57
2022/06/05 08:47:53;;;;;;;;;;;23.50;99.90;;;;;;5074174;28;20104;-58
2022/06/05 08:50:24;;;;;;;18.23;10.25;;;23.30;99.90;;;;;;5076549;28;19957;-57
2022/06/05 08:52:57;;;;;;;16.08;11.13;;;23.30;99.90;;;;;;5093764;28;20032;-57
2022/06/05 08:55:33;;;;;;;12.35;11.05;;;23.30;99.90;;;;;;5093651;28;20039;-56
2022/06/05 08:58:25;;;;;;;10.40;9.48;;;23.30;99.90;;;;;;5091721;28;20050;-57
2022/06/05 09:01:13;;;;;;;9.20;8.20;;;23.70;99.90;;;;;;5064109;28;20036;-57
2022/06/05 09:03:50;;;;;;;9.13;8.20;;;24.10;99.90;;;;;;5093552;28;20089;-56
2022/06/05 09:06:28;;;;;;;16.10;10.43;;;24.00;99.90;;;;;;5093992;28;20016;-56
2022/06/05 09:08:56;;;;;;;13.85;10.52;;;23.90;99.90;;;;;;5092586;28;20020;-57
2022/06/05 09:11:44;;;;;;;13.07;10.40;;;24.10;99.90;;;;;;5093213;28;20480;-55
2022/06/05 09:14:24;;;;;;;11.68;9.00;;;24.20;99.90;;;;;;5093222;28;20084;-57
2022/06/05 09:16:54;;;;;;;9.98;8.27;;;24.50;99.90;;;;;;5093574;28;20115;-55
2022/06/05 09:19:31;;;;;;;16.25;9.30;;;24.60;99.90;;;;;;5093063;28;20069;-58
2022/06/05 09:22:06;;;;;;;12.32;9.02;;;24.50;99.90;;;;;;5093167;28;20021;-54
2022/06/05 09:24:38;;;;;;;13.63;8.70;;;24.50;99.90;;;;;;5093533;28;20099;-55
2022/06/05 09:27:38;;;;;;;10.00;9.10;;;24.20;99.90;;;;;;5093251;28;20029;-55
2022/06/05 09:30:33;;;;;;;14.80;9.82;;;24.30;99.90;;;;;;5093293;28;20023;-55
2022/06/05 09:33:04;;;;;;;20.83;8.90;;;24.50;99.90;;;;;;5034875;28;20472;-58
2022/06/05 09:35:41;;;;;;;13.63;9.10;;;24.60;99.90;;;;;;5073063;28;20111;-54
2022/06/05 09:38:14;;;;;;;12.02;8.27;;;24.70;99.90;;;;;;5072627;28;20081;-56
2022/06/05 09:40:54;;;;;;;10.20;9.20;;;24.70;99.90;;;;;;5072697;28;20107;-57
2022/06/05 09:43:38;;;;;;;15.18;8.93;;;25.10;99.90;;;;;;5082024;28;20483;-57
2022/06/05 09:46:40;;;;;;;14.38;8.13;;;25.10;99.90;;;;;;5092792;28;20361;-56
2022/06/05 09:49:18;;;;;;;14.88;9.43;;;25.30;99.90;;;;;;5030048;28;20079;-57
2022/06/05 09:51:45;;;;;;;9.98;8.98;;;25.40;99.90;;;;;;5085806;28;20395;-57
2022/06/05 09:54:16;;;;;;;10.27;8.45;;;25.40;99.90;;;;;;5092347;28;20034;-57
2022/06/05 09:59:54;;;;;;;16.90;7.47;;;25.40;99.90;;;;;;5093122;28;20067;-57
2022/06/05 10:02:22;;;;;;;9.23;8.32;;;25.60;99.90;;;;;;5092476;28;20028;-55
2022/06/05 10:04:48;;;;;;;10.38;8.23;;;25.90;99.90;;;;;;5090703;28;20123;-56
2022/06/05 10:07:20;;;;;;;7.90;7.10;;;25.80;99.90;;;;;;5092671;28;20027;-57
2022/06/05 10:09:46;;;;;;;9.63;8.23;;;25.70;99.90;;;;;;5092496;28;20073;-57
2022/06/05 10:12:53;;;;;;;11.75;7.75;;;25.70;99.90;;;;;;5092311;28;20528;-57
2022/06/05 10:16:02;;;;;;;12.23;8.13;;;25.90;99.90;;;;;;5080477;28;20055;-58
2022/06/05 10:18:56;;;;;;;9.57;8.68;;;25.90;99.90;;;;;;5029485;28;20486;-58
2022/06/05 10:21:24;;;;;;;11.45;8.35;;;26.50;99.90;;;;;;5090793;28;20032;-58
2022/06/05 10:24:11;;;;;;;9.80;7.85;;;26.30;99.90;;;;;;5091916;28;20024;-58
2022/06/05 10:26:45;;;;;;;8.60;7.45;;;26.00;99.90;;;;;;5087614;28;20093;-56
2022/06/05 10:29:31;;;;;;;11.50;8.07;;;26.10;99.90;;;;;;5091481;28;20478;-58
2022/06/05 10:32:15;;;;;;;11.55;7.78;;;26.50;99.90;;;;;;5091732;28;20107;-54
2022/06/05 10:34:52;;;;;;;14.93;7.82;;;26.50;99.60;;;;;;5092297;28;20035;-58
2022/06/05 10:37:52;;;;;;;8.05;7.35;;;27.00;99.90;;;;;;5091576;28;20132;-56
2022/06/05 10:40:30;;;;;;;8.25;7.45;;;26.80;99.50;;;;;;5092076;28;20068;-58
2022/06/05 10:43:10;;;;;;;15.32;9.02;;;27.50;99.30;;;;;;5091621;28;20020;-58
2022/06/05 10:45:47;;;;;;;8.57;7.47;;;27.30;99.60;;;;;;5091535;28;20080;-57
2022/06/05 10:48:38;;;;;;;9.25;7.57;;;27.50;98.20;;;;;;5091704;28;20035;-58
2022/06/05 10:51:09;;;;;;;7.55;6.70;;;27.70;98.20;;;;;;5091404;28;20004;-58
2022/06/05 10:53:47;;;;;;;10.65;7.05;;;27.60;97.90;;;;;;5091929;28;20020;-58
2022/06/05 10:56:18;;;;;;;9.07;8.15;;;27.90;97.60;;;;;;5090557;28;20456;-57
2022/06/05 10:58:51;;;;;;;8.75;7.38;;;27.60;97.10;;;;;;5091560;28;20032;-58
2022/06/05 11:01:25;;;;;;;13.35;8.32;;;27.40;97.90;;;;;;5090648;28;20020;-57
2022/06/05 11:04:00;;;;;;;9.18;6.70;;;27.30;97.50;;;;;;5089966;28;20439;-57
2022/06/05 11:06:30;;;;;;;11.43;7.13;;;27.50;97.40;;;;;;5090991;28;20028;-57
2022/06/05 11:09:17;;;;;;;8.05;7.30;;;27.80;97.20;;;;;;5091523;28;20053;-58
2022/06/05 11:14:46;;;;;;;16.00;6.10;;;28.20;96.50;;;;;;5091455;28;20019;-58
2022/06/05 11:17:31;;;;;;;8.57;5.68;;;28.10;95.60;;;;;;5091457;28;20391;-58
2022/06/05 11:20:02;;;;;;;7.30;6.15;;;27.80;95.90;;;;;;5091040;28;20375;-57
2022/06/05 11:22:29;;;;;;;10.65;6.88;;;28.00;96.40;;;;;;5091142;28;20103;-58
2022/06/05 11:25:29;;;;;;;14.00;6.82;;;28.10;95.30;;;;;;5091199;28;20024;-58
2022/06/05 11:28:18;;;;;;;8.20;5.78;;;27.90;95.00;;;;;;5087265;28;20502;-58
2022/06/05 11:31:02;;;;;;;6.85;5.70;;;28.20;95.20;;;;;;5091454;28;20024;-57
2022/06/05 11:33:31;;;;;;;7.90;5.78;;;28.40;95.10;;;;;;5091534;28;20024;-57
2022/06/05 11:36:05;;;;;;;12.15;6.82;;;28.50;95.60;;;;;;5091077;28;20171;-58
2022/06/05 11:38:42;;;;;;;6.47;5.88;;;28.30;94.30;;;;;;5091050;28;20044;-58
2022/06/05 11:41:22;;;;;;;10.70;6.53;;;28.20;94.20;;;;;;5071161;28;20032;-58
2022/06/05 11:44:06;;;;;;;8.40;5.70;;;28.30;94.20;;;;;;5072015;28;20025;-58
2022/06/05 11:46:37;;;;;;;9.55;6.13;;;28.10;95.30;;;;;;5091308;28;20027;-56
2022/06/05 11:49:16;;;;;;;6.68;5.30;;;28.60;94.20;;;;;;5090771;28;20028;-57
2022/06/05 11:52:08;;;;;;;8.50;5.45;;;29.10;93.30;;;;;;5091254;28;20027;-55
2022/06/05 11:54:58;;;;;;;5.82;5.30;;;29.20;93.70;;;;;;5090911;28;20107;-56
2022/06/05 11:57:50;;;;;;;4.72;4.32;;;28.60;92.40;;;;;;5082323;28;20735;-58
2022/06/05 12:00:21;;;;;;;7.72;5.00;;;28.60;92.60;;;;;;5076674;28;20094;-58
2022/06/05 12:03:15;;;;;;;7.30;5.05;;;28.90;93.00;;;;;;5079933;28;20024;-59
2022/06/05 12:05:47;;;;;;;5.97;5.15;;;28.70;93.40;;;;;;5078908;28;20408;-59
2022/06/05 12:08:18;;;;;;;5.30;4.60;;;29.10;92.90;;;;;;5082304;28;20056;-58
2022/06/05 12:11:03;;;;;;;9.15;4.85;;;29.20;91.80;;;;;;5082992;28;20027;-57
2022/06/05 12:13:42;;;;;;;11.85;4.53;;;29.80;92.90;;;;;;5081922;28;20376;-59
2022/06/05 12:16:31;;;;;;;6.10;4.82;;;29.90;90.30;;;;;;5081313;28;20020;-58
2022/06/05 12:22:15;;;;;;;6.15;4.47;;;30.20;88.90;;;;;;5082291;28;20043;-57
2022/06/05 12:24:54;;;;;;;5.63;4.38;;;30.10;86.90;;;;;;5081102;28;20078;-59
2022/06/05 12:27:23;;;;;;;6.43;4.38;;;31.10;89.30;;;;;;5083770;28;20111;-59
2022/06/05 12:30:06;;;;;;;4.78;4.35;;;31.90;86.80;;;;;;5083075;28;20028;-59
2022/06/05 12:32:35;;;;;;;4.40;4.00;;;32.20;83.50;;;;;;5083803;28;20043;-59
2022/06/05 12:35:16;;;;;;;5.60;5.10;;;31.70;82.20;;;;;;5082888;28;20056;-59
2022/06/05 12:37:55;;;;;;;4.88;4.40;;;30.70;82.20;;;;;;5083799;28;20058;-59
2022/06/05 12:40:29;;;;;;;4.85;4.32;;;30.60;84.50;;;;;;5083808;28;20040;-59
2022/06/05 12:43:02;;;;;;;7.97;4.75;;;30.00;82.20;;;;;;5082132;28;20111;-59
2022/06/05 12:45:33;;;;;;;6.00;4.22;;;29.70;84.80;;;;;;5082730;28;20024;-58
2022/06/05 12:48:09;;;;;;;10.82;4.63;;;30.20;88.30;;;;;;5083153;28;20475;-59
2022/06/05 12:50:47;;;;;;;12.07;4.40;;;31.00;84.90;;;;;;5080775;28;20032;-59
2022/06/05 12:53:28;;;;;;;4.93;4.50;;;30.50;85.50;;;;;;5080415;28;20506;-59
2022/06/05 12:55:56;;;;;;;5.72;5.03;;;30.80;82.30;;;;;;5080285;28;20107;-59
2022/06/05 12:58:46;;;;;;;12.68;4.45;;;30.50;81.10;;;;;;5081451;28;20059;-59
2022/06/05 13:01:27;;;;;;;6.18;4.72;;;31.70;85.00;;;;;;5081438;28;20048;-59
2022/06/05 13:03:56;;;;;;;5.45;4.15;;;32.50;80.90;;;;;;5082417;28;20119;-59
2022/06/05 13:06:40;;;;;;;4.68;4.22;;;32.00;80.10;;;;;;5083216;28;20085;-59
2022/06/05 13:09:29;;;;;;;5.65;4.57;;;32.00;78.70;;;;;;5083783;28;20039;-59
2022/06/05 13:12:16;;;;;;;5.78;3.80;;;32.00;76.40;;;;;;5082674;28;20479;-59
2022/06/05 13:15:18;;;;;;;6.00;3.65;;;32.30;78.00;;;;;;5082648;28;20505;-59
2022/06/05 13:18:07;;;;;;;6.35;4.20;;;32.90;75.50;;;;;;5083142;28;20051;-59
2022/06/05 13:21:01;;;;;;;5.22;4.32;;;32.30;73.80;;;;;;5082298;28;20031;-59
2022/06/05 13:23:34;;;;;;;6.97;4.32;;;32.30;76.40;;;;;;5082432;28;20119;-59
2022/06/05 13:26:32;;;;;;;5.63;4.47;;;32.60;75.30;;;;;;5082503;28;20027;-59
2022/06/05 13:29:20;;;;;;;10.40;4.53;;;32.60;73.50;;;;;;5076446;28;20383;-59
2022/06/05 13:32:13;;;;;;;7.97;4.22;;;31.80;73.60;;;;;;5082577;28;20097;-59
2022/06/05 13:35:16;;;;;;;8.25;4.32;;;31.80;73.20;;;;;;5082571;28;21810;-59
2022/06/05 13:37:52;;;;;;;9.02;4.60;;;31.00;75.40;;;;;;5082477;28;20036;-59
2022/06/05 13:40:42;;;;;;;5.65;5.15;;;29.90;77.70;;;;;;5081711;28;20093;-59